Time;durP1;ratioP1;P1;durP2;ratioP2;P2;SDS_P1;SDS_P2;PMS_P1;PMS_P2;Temp;Humidity;BMP_temperature;BMP_pressure;BME280_temperature;BME280_humidity;BME280_pressure;Samples;Min_cycle;Max_cycle;Signal;HPM_P1;HPM_P2
2020/12/21 00:01:43;;;;;;;25.37;12.93;;;8.10;93.60;;;;;;5016194;28;20490;-84
2020/12/21 00:04:09;;;;;;;22.07;11.77;;;8.10;93.60;;;;;;5016028;28;20071;-83
2020/12/21 00:06:35;;;;;;;22.77;11.40;;;8.10;93.60;;;;;;5033627;28;20121;-83
2020/12/21 00:09:01;;;;;;;22.27;11.63;;;8.10;93.50;;;;;;5014277;28;20033;-84
2020/12/21 00:11:34;;;;;;;21.90;11.60;;;8.10;93.50;;;;;;5033730;28;20032;-82
2020/12/21 00:14:00;;;;;;;22.75;11.07;;;8.20;93.60;;;;;;5015214;28;20034;-83
2020/12/21 00:16:25;;;;;;;20.83;10.90;;;8.10;93.50;;;;;;5033200;28;20025;-84
2020/12/21 00:18:51;;;;;;;18.48;10.10;;;8.20;93.50;;;;;;5015400;28;20438;-86
2020/12/21 00:21:17;;;;;;;21.10;10.52;;;8.20;93.40;;;;;;5016352;28;20030;-87
2020/12/21 00:23:43;;;;;;;20.38;11.30;;;8.20;93.40;;;;;;5032902;28;20079;-86
2020/12/21 00:26:08;;;;;;;19.63;10.90;;;8.20;93.40;;;;;;5018956;28;20026;-86
2020/12/21 00:28:34;;;;;;;21.45;10.80;;;8.20;93.40;;;;;;5032841;28;20033;-87
2020/12/21 00:31:00;;;;;;;19.77;10.73;;;8.20;93.40;;;;;;5032319;28;20095;-87
2020/12/21 00:33:30;;;;;;;22.93;11.47;;;8.20;93.30;;;;;;5020104;28;20557;-85
2020/12/21 00:35:55;;;;;;;19.40;10.53;;;8.10;93.40;;;;;;5014157;28;20026;-87
2020/12/21 00:38:21;;;;;;;21.33;11.43;;;8.10;93.40;;;;;;5014888;28;20033;-84
2020/12/21 00:40:47;;;;;;;19.08;10.02;;;8.20;93.40;;;;;;5016163;28;20434;-87
2020/12/21 00:43:12;;;;;;;17.63;10.33;;;8.20;93.30;;;;;;5021987;28;20025;-85
2020/12/21 00:45:38;;;;;;;17.70;10.05;;;8.20;93.30;;;;;;5020773;28;20063;-84
2020/12/21 00:48:05;;;;;;;16.02;9.82;;;8.30;93.30;;;;;;5020097;28;20164;-88
2020/12/21 00:50:31;;;;;;;19.73;10.57;;;8.40;93.30;;;;;;5055565;28;20053;-81
2020/12/21 00:52:56;;;;;;;17.63;10.07;;;8.40;93.10;;;;;;5039345;28;20538;-80
2020/12/21 00:55:22;;;;;;;21.50;10.00;;;8.40;93.00;;;;;;5056769;28;20025;-83
2020/12/21 00:57:48;;;;;;;19.70;9.93;;;8.50;92.90;;;;;;5038973;28;20474;-89
2020/12/21 01:00:13;;;;;;;14.75;8.63;;;8.50;92.80;;;;;;5038371;28;20567;-82
2020/12/21 01:02:39;;;;;;;15.32;9.70;;;8.50;92.80;;;;;;5057121;28;20098;-87
2020/12/21 01:05:05;;;;;;;16.53;9.43;;;8.50;92.60;;;;;;5039189;28;20123;-87
2020/12/21 01:07:31;;;;;;;18.13;10.07;;;8.40;92.60;;;;;;5057133;28;20105;-88
2020/12/21 01:09:56;;;;;;;16.05;9.52;;;8.40;92.60;;;;;;5056344;28;20382;-87
2020/12/21 01:12:22;;;;;;;18.45;9.60;;;8.30;92.60;;;;;;5039341;28;20028;-87
2020/12/21 01:14:48;;;;;;;21.37;10.23;;;8.30;92.60;;;;;;5038058;28;20052;-87
2020/12/21 01:17:14;;;;;;;20.17;10.35;;;8.30;92.60;;;;;;5038134;28;20036;-88
2020/12/21 01:19:39;;;;;;;20.93;10.87;;;8.30;92.60;;;;;;5038655;28;20033;-85
2020/12/21 01:22:06;;;;;;;20.02;10.63;;;8.20;92.60;;;;;;5038066;28;20021;-87
2020/12/21 01:24:32;;;;;;;19.10;10.87;;;8.20;92.60;;;;;;5038742;28;20062;-87
2020/12/21 01:26:57;;;;;;;19.87;10.70;;;8.10;92.70;;;;;;5038345;28;20120;-87
2020/12/21 01:29:23;;;;;;;17.17;10.37;;;8.10;92.80;;;;;;5038823;28;20029;-86
2020/12/21 01:31:49;;;;;;;16.80;9.87;;;8.00;92.80;;;;;;5047119;28;20029;-86
2020/12/21 01:34:15;;;;;;;17.57;9.77;;;8.00;92.80;;;;;;5036746;28;20056;-87
2020/12/21 01:36:41;;;;;;;18.67;11.17;;;7.90;92.80;;;;;;5035182;28;20406;-85
2020/12/21 01:39:07;;;;;;;19.37;11.30;;;7.90;92.70;;;;;;5035319;28;20083;-87
2020/12/21 01:41:32;;;;;;;18.70;11.15;;;7.90;92.80;;;;;;5036733;28;20029;-87
2020/12/21 01:43:58;;;;;;;17.55;10.15;;;7.90;92.80;;;;;;5035016;28;20080;-87
2020/12/21 01:46:25;;;;;;;19.47;10.57;;;7.90;92.90;;;;;;5034807;28;20025;-87
2020/12/21 01:48:51;;;;;;;20.97;11.67;;;7.90;92.90;;;;;;5039380;28;20053;-86
2020/12/21 01:51:26;;;;;;;20.47;11.23;;;7.90;92.90;;;;;;5056249;28;20048;-86
2020/12/21 01:53:53;;;;;;;19.70;11.37;;;7.90;92.80;;;;;;5052963;28;20029;-86
2020/12/21 01:56:19;;;;;;;19.37;10.57;;;7.90;92.80;;;;;;5054774;28;20060;-86
2020/12/21 01:58:45;;;;;;;17.20;10.17;;;7.90;92.80;;;;;;5055365;28;20055;-84
2020/12/21 02:01:13;;;;;;;16.50;10.23;;;7.90;92.80;;;;;;5054836;28;20078;-86
2020/12/21 02:03:40;;;;;;;18.33;11.13;;;7.90;92.80;;;;;;5055199;28;20060;-86
2020/12/21 02:06:06;;;;;;;17.50;10.20;;;7.90;92.80;;;;;;5055583;28;20485;-84
2020/12/21 02:08:32;;;;;;;19.23;9.73;;;7.90;92.80;;;;;;5055002;28;20047;-86
2020/12/21 02:10:58;;;;;;;16.93;10.10;;;7.90;92.70;;;;;;5054596;28;20025;-86
2020/12/21 02:13:23;;;;;;;16.97;10.40;;;8.00;92.70;;;;;;5054476;28;20381;-86
2020/12/21 02:15:49;;;;;;;15.80;9.37;;;8.00;92.60;;;;;;5054129;28;20032;-86
2020/12/21 02:18:15;;;;;;;16.57;9.60;;;8.00;92.60;;;;;;5054008;28;20029;-86
2020/12/21 02:20:40;;;;;;;16.80;10.63;;;8.00;92.90;;;;;;5054469;28;20550;-86
2020/12/21 02:23:06;;;;;;;17.17;10.57;;;8.00;92.60;;;;;;5054026;28;20067;-87
2020/12/21 02:25:32;;;;;;;18.57;10.03;;;7.90;92.70;;;;;;5054778;28;20035;-86
2020/12/21 02:27:57;;;;;;;19.87;10.13;;;8.00;92.70;;;;;;5054089;28;20033;-87
2020/12/21 02:30:23;;;;;;;19.77;10.90;;;8.00;92.70;;;;;;5054232;28;20066;-87
2020/12/21 02:32:49;;;;;;;20.57;11.23;;;8.00;92.80;;;;;;5053941;28;20067;-86
2020/12/21 02:35:15;;;;;;;19.10;11.33;;;7.90;92.70;;;;;;5054581;28;20029;-87
2020/12/21 02:37:42;;;;;;;19.60;11.37;;;7.90;92.80;;;;;;5054292;28;20029;-86
2020/12/21 02:40:08;;;;;;;18.27;10.98;;;7.90;92.80;;;;;;5054447;28;20442;-86
2020/12/21 02:42:34;;;;;;;18.47;10.33;;;7.90;92.90;;;;;;5055303;28;20028;-87
2020/12/21 02:45:00;;;;;;;18.63;10.43;;;7.80;93.20;;;;;;5053821;28;20079;-87
2020/12/21 02:47:26;;;;;;;20.00;10.50;;;7.80;93.00;;;;;;5054294;28;20033;-86
2020/12/21 02:49:51;;;;;;;19.90;11.07;;;7.80;93.00;;;;;;5054680;28;20053;-87
2020/12/21 02:52:17;;;;;;;19.30;10.20;;;7.80;93.10;;;;;;5055133;28;20048;-87
2020/12/21 02:54:45;;;;;;;21.43;12.10;;;7.80;93.10;;;;;;5054016;28;20025;-87
2020/12/21 02:57:10;;;;;;;19.67;10.83;;;7.80;93.10;;;;;;5053459;28;20033;-87
2020/12/21 02:59:36;;;;;;;20.77;11.20;;;7.90;93.10;;;;;;5055018;28;20043;-87
2020/12/21 03:02:02;;;;;;;17.97;11.13;;;7.90;93.10;;;;;;5052427;28;20120;-86
2020/12/21 03:04:27;;;;;;;20.30;11.03;;;7.90;93.00;;;;;;5053109;28;20067;-87
2020/12/21 03:06:53;;;;;;;17.23;10.20;;;7.90;92.90;;;;;;5053523;28;20485;-87
2020/12/21 03:09:18;;;;;;;19.25;10.52;;;7.90;92.80;;;;;;5053504;28;20528;-87
2020/12/21 03:11:45;;;;;;;16.05;9.93;;;7.90;92.70;;;;;;5054049;28;20025;-87
2020/12/21 03:14:11;;;;;;;17.30;10.37;;;7.90;92.70;;;;;;5052881;28;20025;-86
2020/12/21 03:16:37;;;;;;;16.30;9.40;;;7.90;92.60;;;;;;5052842;28;20025;-87
2020/12/21 03:19:02;;;;;;;20.33;10.43;;;7.90;92.60;;;;;;5052049;28;20040;-87
2020/12/21 03:21:28;;;;;;;17.17;10.10;;;7.90;92.70;;;;;;5053945;28;20036;-86
2020/12/21 03:23:53;;;;;;;16.95;10.18;;;7.90;92.50;;;;;;5052504;28;20382;-86
2020/12/21 03:26:19;;;;;;;15.93;9.23;;;7.90;92.50;;;;;;5052953;28;20033;-86
2020/12/21 03:28:45;;;;;;;17.43;9.50;;;7.90;92.50;;;;;;5052895;28;20537;-86
2020/12/21 03:31:10;;;;;;;15.60;9.93;;;7.80;92.60;;;;;;5052428;28;20025;-86
2020/12/21 03:33:36;;;;;;;20.50;11.47;;;7.80;92.70;;;;;;5052597;28;20056;-86
2020/12/21 03:36:02;;;;;;;25.23;13.37;;;7.90;92.60;;;;;;5051767;28;20087;-86
2020/12/21 03:38:27;;;;;;;25.37;14.17;;;7.90;92.60;;;;;;5052739;28;20029;-86
2020/12/21 03:40:53;;;;;;;26.13;13.63;;;7.90;92.60;;;;;;5053434;28;20414;-86
2020/12/21 03:43:19;;;;;;;21.90;11.98;;;7.90;92.60;;;;;;5053188;28;20029;-87
2020/12/21 03:45:46;;;;;;;20.25;11.38;;;7.80;92.80;;;;;;5053757;28;20048;-86
2020/12/21 03:48:13;;;;;;;17.23;10.80;;;7.90;92.50;;;;;;5052236;28;20029;-87
2020/12/21 03:50:39;;;;;;;17.92;10.10;;;7.80;92.50;;;;;;5052364;28;20053;-87
2020/12/21 03:53:05;;;;;;;21.47;10.57;;;7.80;92.50;;;;;;5051811;28;20066;-87
2020/12/21 03:55:30;;;;;;;19.20;10.85;;;7.90;92.50;;;;;;5052802;28;20096;-87
2020/12/21 03:57:56;;;;;;;16.60;9.77;;;7.90;92.60;;;;;;5052135;28;20048;-86
2020/12/21 04:00:22;;;;;;;15.47;9.77;;;7.90;92.60;;;;;;5051971;28;20025;-87
2020/12/21 04:02:47;;;;;;;16.33;9.40;;;7.90;92.60;;;;;;5052713;28;20393;-86
2020/12/21 04:05:13;;;;;;;16.13;9.53;;;7.90;92.60;;;;;;5054745;28;20466;-86
2020/12/21 04:07:39;;;;;;;16.73;9.17;;;7.90;92.60;;;;;;5057195;28;20029;-86
2020/12/21 04:10:08;;;;;;;14.40;9.03;;;7.90;92.50;;;;;;5059050;28;20100;-87
2020/12/21 04:12:35;;;;;;;14.20;8.27;;;7.90;92.50;;;;;;5063181;28;20045;-86
2020/12/21 04:15:01;;;;;;;16.67;9.37;;;7.90;92.50;;;;;;5067225;28;20017;-86
2020/12/21 04:17:27;;;;;;;15.82;8.85;;;7.90;92.50;;;;;;5068991;28;20033;-88
2020/12/21 04:19:53;;;;;;;14.77;8.80;;;8.00;92.50;;;;;;5070499;28;20029;-84
2020/12/21 04:22:18;;;;;;;15.23;8.97;;;7.90;92.40;;;;;;5068756;28;20040;-86
2020/12/21 04:24:44;;;;;;;14.20;8.10;;;7.90;92.40;;;;;;5060652;28;20036;-87
2020/12/21 04:27:10;;;;;;;12.23;8.33;;;7.90;92.40;;;;;;5055695;28;20200;-87
2020/12/21 04:29:36;;;;;;;13.47;8.53;;;7.90;92.40;;;;;;5056330;28;20029;-87
2020/12/21 04:32:02;;;;;;;15.05;8.43;;;7.80;92.40;;;;;;5055917;28;20139;-88
2020/12/21 04:34:27;;;;;;;15.13;8.83;;;7.80;92.50;;;;;;5056550;28;20493;-87
2020/12/21 04:36:53;;;;;;;13.05;8.13;;;7.80;92.50;;;;;;5055942;28;20029;-86
2020/12/21 04:39:22;;;;;;;16.73;8.43;;;7.90;92.50;;;;;;5056543;28;20029;-87
2020/12/21 04:41:55;;;;;;;14.93;8.57;;;7.80;92.50;;;;;;5056819;28;20048;-87
2020/12/21 04:44:22;;;;;;;15.00;8.50;;;7.80;92.50;;;;;;5056626;28;20025;-87
2020/12/21 04:46:51;;;;;;;13.77;8.13;;;7.80;92.40;;;;;;5056159;28;20029;-88
2020/12/21 04:49:17;;;;;;;12.53;8.10;;;7.80;92.40;;;;;;5055417;28;20067;-87
2020/12/21 04:51:46;;;;;;;14.13;7.93;;;7.70;92.40;;;;;;5056300;28;20516;-88
2020/12/21 04:54:12;;;;;;;13.13;8.17;;;7.70;92.40;;;;;;5056468;28;20048;-88
2020/12/21 04:56:38;;;;;;;13.73;8.23;;;7.60;92.40;;;;;;5056231;28;20029;-88
2020/12/21 04:59:04;;;;;;;14.03;7.50;;;7.60;92.40;;;;;;5055444;28;20029;-88
2020/12/21 05:01:30;;;;;;;14.47;8.33;;;7.60;92.40;;;;;;5056690;28;20056;-88
2020/12/21 05:03:55;;;;;;;13.80;7.78;;;7.40;92.40;;;;;;5054893;28;20029;-85
2020/12/21 05:06:21;;;;;;;13.90;7.70;;;7.40;92.50;;;;;;5056690;28;20025;-88
2020/12/21 05:08:47;;;;;;;13.67;7.43;;;7.40;92.60;;;;;;5056263;28;20470;-89
2020/12/21 05:11:12;;;;;;;10.10;6.93;;;7.40;92.50;;;;;;5055536;28;20052;-88
2020/12/21 05:13:38;;;;;;;12.87;7.07;;;7.40;92.40;;;;;;5055745;28;20075;-87
2020/12/21 05:16:03;;;;;;;11.67;7.40;;;7.40;92.40;;;;;;5055266;28;20025;-88
2020/12/21 05:18:31;;;;;;;12.93;7.60;;;7.40;92.40;;;;;;5055728;28;20060;-87
2020/12/21 05:21:01;;;;;;;11.63;7.07;;;7.40;92.40;;;;;;5055388;28;20062;-85
2020/12/21 05:23:27;;;;;;;10.50;6.67;;;7.40;92.30;;;;;;5055730;28;20053;-87
2020/12/21 05:26:03;;;;;;;10.73;6.47;;;7.40;92.20;;;;;;5055590;28;20033;-86
2020/12/21 05:28:35;;;;;;;11.07;6.90;;;7.40;92.30;;;;;;5054806;28;20036;-87
2020/12/21 05:31:02;;;;;;;13.23;7.85;;;7.30;92.30;;;;;;5055293;28;20074;-86
2020/12/21 05:33:28;;;;;;;12.33;7.43;;;7.30;92.30;;;;;;5055357;28;20025;-87
2020/12/21 05:36:10;;;;;;;12.27;7.00;;;7.20;92.30;;;;;;5056392;28;20029;-87
2020/12/21 05:38:36;;;;;;;10.63;6.20;;;7.20;92.40;;;;;;5055518;28;20074;-87
2020/12/21 05:41:18;;;;;;;9.93;6.53;;;7.10;92.30;;;;;;5055001;28;20045;-87
2020/12/21 05:43:48;;;;;;;12.00;7.20;;;7.10;92.20;;;;;;5055489;28;20040;-86
2020/12/21 05:46:19;;;;;;;11.33;6.93;;;7.10;92.20;;;;;;5054915;28;20093;-86
2020/12/21 05:48:49;;;;;;;12.57;6.80;;;7.00;92.40;;;;;;5055380;28;20545;-86
2020/12/21 05:51:33;;;;;;;11.73;6.60;;;7.00;92.40;;;;;;5055963;28;20033;-86
2020/12/21 05:54:04;;;;;;;13.10;6.70;;;7.00;92.30;;;;;;5054566;28;20029;-86
2020/12/21 05:56:31;;;;;;;11.37;7.03;;;7.00;92.20;;;;;;5051938;28;20083;-86
2020/12/21 05:58:57;;;;;;;10.00;6.07;;;7.00;92.10;;;;;;5054155;28;20039;-85
2020/12/21 06:01:24;;;;;;;7.90;5.50;;;6.90;92.30;;;;;;5054922;28;20115;-86
2020/12/21 06:04:03;;;;;;;10.50;6.00;;;6.90;92.00;;;;;;5055170;28;20439;-86
2020/12/21 06:06:30;;;;;;;8.17;5.27;;;6.90;92.00;;;;;;5054877;28;20036;-86
2020/12/21 06:08:58;;;;;;;8.23;5.33;;;6.90;91.70;;;;;;5054624;28;20028;-86
2020/12/21 06:11:28;;;;;;;7.67;5.13;;;6.90;91.80;;;;;;5055788;28;20029;-86
2020/12/21 06:14:06;;;;;;;7.07;5.47;;;6.90;91.90;;;;;;5054840;28;20025;-87
2020/12/21 06:16:35;;;;;;;7.07;5.17;;;6.80;91.90;;;;;;5054887;28;20115;-87
2020/12/21 06:19:06;;;;;;;6.63;4.77;;;6.80;91.90;;;;;;5054063;28;20032;-85
2020/12/21 06:21:38;;;;;;;6.88;4.25;;;6.80;91.80;;;;;;5054615;28;20040;-88
2020/12/21 06:24:18;;;;;;;6.75;4.32;;;6.80;91.70;;;;;;5055070;28;20115;-86
2020/12/21 06:26:44;;;;;;;5.40;3.47;;;6.70;91.60;;;;;;5054439;28;20067;-87
2020/12/21 06:29:23;;;;;;;4.47;3.37;;;6.70;91.70;;;;;;5054786;28;20033;-86
2020/12/21 06:31:52;;;;;;;4.63;3.33;;;6.80;91.80;;;;;;5054364;28;20474;-86
2020/12/21 06:34:30;;;;;;;5.37;2.97;;;6.70;91.70;;;;;;5053739;28;20032;-86
2020/12/21 06:37:01;;;;;;;5.47;2.93;;;6.70;91.70;;;;;;5054244;28;20021;-87
2020/12/21 06:39:26;;;;;;;5.77;3.37;;;6.70;91.80;;;;;;5053809;28;20060;-87
2020/12/21 06:42:01;;;;;;;4.07;2.83;;;6.70;91.70;;;;;;5054343;28;20033;-87
2020/12/21 06:44:29;;;;;;;5.63;3.53;;;6.70;91.60;;;;;;5054103;28;20021;-86
2020/12/21 06:46:56;;;;;;;7.37;3.47;;;6.70;91.60;;;;;;5053992;28;20021;-86
2020/12/21 06:49:22;;;;;;;9.40;3.60;;;6.60;91.60;;;;;;5053333;28;20047;-86
2020/12/21 06:51:48;;;;;;;4.13;3.00;;;6.60;91.60;;;;;;5054010;28;20028;-86
2020/12/21 06:54:15;;;;;;;5.73;2.77;;;6.60;91.60;;;;;;5053015;28;20086;-87
2020/12/21 06:56:42;;;;;;;3.97;2.80;;;6.60;91.50;;;;;;5053996;28;20029;-86
2020/12/21 06:59:13;;;;;;;4.20;2.80;;;6.60;91.50;;;;;;5053605;28;20047;-87
2020/12/21 07:01:40;;;;;;;4.07;2.87;;;6.60;91.50;;;;;;5053929;28;20033;-87
2020/12/21 07:04:17;;;;;;;5.30;3.10;;;6.50;91.50;;;;;;5054303;28;20029;-87
2020/12/21 07:06:44;;;;;;;4.47;2.70;;;6.50;91.50;;;;;;5053359;28;20070;-86
2020/12/21 07:09:14;;;;;;;4.20;2.60;;;6.50;91.60;;;;;;5054045;28;20031;-86
2020/12/21 07:11:41;;;;;;;6.43;2.97;;;6.50;91.50;;;;;;5055017;28;20021;-86
2020/12/21 07:14:08;;;;;;;5.30;2.50;;;6.50;91.50;;;;;;5053397;28;20040;-86
2020/12/21 07:16:34;;;;;;;3.87;2.33;;;6.40;91.60;;;;;;5053704;28;20111;-86
2020/12/21 07:19:00;;;;;;;3.63;2.73;;;6.40;91.50;;;;;;5052835;28;20120;-86
2020/12/21 07:21:25;;;;;;;3.40;2.60;;;6.50;91.60;;;;;;5053119;28;20105;-86
2020/12/21 07:23:51;;;;;;;4.57;2.40;;;6.50;91.50;;;;;;5052779;28;20025;-86
2020/12/21 07:26:17;;;;;;;4.67;2.50;;;6.40;91.50;;;;;;5052728;28;20059;-86
2020/12/21 07:28:47;;;;;;;5.43;2.17;;;6.40;91.70;;;;;;5053230;28;20049;-87
2020/12/21 07:31:20;;;;;;;4.70;2.27;;;6.40;91.70;;;;;;5052759;28;20115;-86
2020/12/21 07:33:50;;;;;;;3.50;2.33;;;6.50;91.70;;;;;;5053390;28;20381;-86
2020/12/21 07:36:17;;;;;;;4.93;2.20;;;6.50;91.60;;;;;;5052953;28;20378;-86
2020/12/21 07:38:44;;;;;;;5.10;2.37;;;6.60;91.60;;;;;;5053275;28;20522;-86
2020/12/21 07:41:10;;;;;;;3.13;2.10;;;6.60;91.50;;;;;;5052472;28;20059;-86
2020/12/21 07:43:43;;;;;;;3.47;2.20;;;6.60;91.50;;;;;;5052875;28;20037;-86
2020/12/21 07:46:18;;;;;;;2.90;2.03;;;6.60;91.50;;;;;;5052597;28;20021;-86
2020/12/21 07:48:45;;;;;;;3.10;2.07;;;6.60;91.60;;;;;;5053747;28;20113;-86
2020/12/21 07:51:10;;;;;;;3.17;2.10;;;6.70;91.60;;;;;;5053510;28;20095;-86
2020/12/21 07:53:42;;;;;;;4.03;2.20;;;6.70;91.50;;;;;;5053247;28;20466;-87
2020/12/21 07:56:14;;;;;;;4.57;1.95;;;6.70;91.40;;;;;;5052536;28;20078;-85
2020/12/21 07:58:39;;;;;;;;;;;6.70;91.40;;;;;;5053393;28;20090;-86
2020/12/21 08:01:05;;;;;;;3.20;1.90;;;6.70;91.40;;;;;;5052192;28;19908;-86
2020/12/21 08:03:31;;;;;;;3.10;2.20;;;6.70;91.40;;;;;;5052400;28;20021;-86
2020/12/21 08:06:13;;;;;;;4.10;2.30;;;6.70;91.50;;;;;;5053612;28;20466;-86
2020/12/21 08:08:40;;;;;;;3.67;2.07;;;6.70;91.50;;;;;;5053328;28;20033;-86
2020/12/21 08:11:14;;;;;;;4.03;2.10;;;6.70;91.50;;;;;;5052078;28;20032;-85
2020/12/21 08:13:45;;;;;;;2.33;1.70;;;6.80;91.60;;;;;;5052536;28;20044;-86
2020/12/21 08:16:11;;;;;;;3.47;1.63;;;6.80;91.50;;;;;;5052127;28;20025;-86
2020/12/21 08:18:37;;;;;;;3.07;2.00;;;6.80;91.50;;;;;;5052501;28;20190;-86
2020/12/21 08:21:04;;;;;;;2.20;1.80;;;6.90;91.50;;;;;;5053731;28;20487;-86
2020/12/21 08:23:31;;;;;;;3.60;1.90;;;6.90;91.50;;;;;;5052187;28;20017;-86
2020/12/21 08:25:58;;;;;;;3.27;2.23;;;6.80;91.50;;;;;;5053245;28;20533;-86
2020/12/21 08:28:28;;;;;;;3.17;2.10;;;6.80;91.60;;;;;;5051764;28;20033;-86
2020/12/21 08:31:08;;;;;;;2.83;1.80;;;6.80;91.60;;;;;;5052505;28;20139;-86
2020/12/21 08:33:35;;;;;;;2.60;1.80;;;6.90;91.70;;;;;;5053241;28;20024;-86
2020/12/21 08:36:25;;;;;;;3.10;2.20;;;6.90;91.60;;;;;;5052343;28;20028;-86
2020/12/21 08:38:52;;;;;;;3.73;1.93;;;6.90;91.50;;;;;;5052266;28;20035;-86
2020/12/21 08:41:18;;;;;;;3.90;2.03;;;6.90;91.50;;;;;;5051316;28;20025;-85
2020/12/21 08:43:45;;;;;;;4.57;1.90;;;7.00;91.60;;;;;;5053988;28;20095;-84
2020/12/21 08:46:12;;;;;;;6.03;2.17;;;7.00;91.50;;;;;;5052738;28;20124;-84
2020/12/21 08:48:39;;;;;;;2.37;1.70;;;7.00;91.50;;;;;;5053618;28;20106;-85
2020/12/21 08:51:05;;;;;;;3.30;1.70;;;7.00;91.60;;;;;;5055709;28;20025;-85
2020/12/21 08:53:31;;;;;;;2.80;2.00;;;7.00;91.50;;;;;;5054223;28;20390;-86
2020/12/21 08:55:57;;;;;;;3.70;1.70;;;7.00;91.50;;;;;;5057152;28;20052;-85
2020/12/21 08:58:22;;;;;;;3.30;2.07;;;7.00;91.70;;;;;;5055387;28;20041;-85
2020/12/21 09:00:48;;;;;;;3.53;2.30;;;7.10;91.40;;;;;;5055002;28;20446;-84
2020/12/21 09:03:14;;;;;;;4.43;2.10;;;7.10;91.40;;;;;;5054890;28;20106;-85
2020/12/21 09:05:39;;;;;;;6.73;2.90;;;7.10;91.30;;;;;;5055575;28;20116;-84
2020/12/21 09:08:05;;;;;;;7.10;2.97;;;7.10;91.30;;;;;;5055442;28;20029;-85
2020/12/21 09:10:30;;;;;;;5.07;3.50;;;7.10;91.20;;;;;;5054687;28;20515;-86
2020/12/21 09:12:56;;;;;;;6.37;3.47;;;7.10;91.20;;;;;;5055748;28;20049;-86
2020/12/21 09:15:22;;;;;;;5.57;3.40;;;7.10;91.20;;;;;;5055009;28;20029;-85
2020/12/21 09:17:48;;;;;;;4.40;2.80;;;7.10;91.20;;;;;;5055733;28;20033;-85
2020/12/21 09:20:13;;;;;;;5.50;2.87;;;7.10;91.30;;;;;;5055291;28;20025;-85
2020/12/21 09:22:39;;;;;;;5.17;3.00;;;7.20;91.30;;;;;;5056634;28;20107;-86
2020/12/21 09:25:04;;;;;;;4.63;3.07;;;7.20;91.30;;;;;;5056354;28;20021;-86
2020/12/21 09:27:30;;;;;;;4.37;2.90;;;7.30;91.30;;;;;;5055080;28;20029;-86
2020/12/21 09:29:56;;;;;;;8.20;4.73;;;7.30;91.20;;;;;;5055171;28;20025;-88
2020/12/21 09:32:21;;;;;;;10.90;5.77;;;7.30;91.10;;;;;;5054659;28;20021;-86
2020/12/21 09:34:48;;;;;;;14.27;8.37;;;7.30;91.20;;;;;;5056443;28;20021;-85
2020/12/21 09:37:14;;;;;;;13.67;7.40;;;7.40;91.30;;;;;;5054711;28;20021;-85
2020/12/21 09:39:39;;;;;;;14.30;7.90;;;7.40;91.40;;;;;;5055081;28;20124;-86
2020/12/21 09:42:05;;;;;;;13.47;7.60;;;7.30;91.40;;;;;;5056447;28;20105;-85
2020/12/21 09:44:31;;;;;;;12.60;6.97;;;7.40;91.40;;;;;;5055509;28;20025;-85
2020/12/21 09:46:56;;;;;;;8.13;5.70;;;7.50;91.50;;;;;;5055027;28;20028;-85
2020/12/21 09:49:22;;;;;;;7.77;5.03;;;7.50;91.60;;;;;;5055113;28;20061;-84
2020/12/21 09:51:54;;;;;;;7.47;4.20;;;7.50;91.50;;;;;;5056176;28;20021;-85
2020/12/21 09:54:20;;;;;;;6.45;4.10;;;7.50;91.40;;;;;;5054684;28;20029;-84
2020/12/21 09:56:48;;;;;;;9.43;4.47;;;7.60;91.40;;;;;;5054726;28;20037;-85
2020/12/21 09:59:14;;;;;;;7.83;4.40;;;7.60;91.30;;;;;;5054452;28;20036;-84
2020/12/21 10:01:40;;;;;;;6.87;4.23;;;7.60;91.30;;;;;;5054918;28;20025;-85
2020/12/21 10:04:06;;;;;;;8.70;4.17;;;7.60;91.40;;;;;;5055037;28;20070;-85
2020/12/21 10:06:31;;;;;;;7.47;4.53;;;7.60;91.40;;;;;;5054331;28;20355;-85
2020/12/21 10:08:57;;;;;;;9.60;5.00;;;7.70;91.40;;;;;;5054964;28;20532;-85
2020/12/21 10:11:23;;;;;;;8.40;4.83;;;7.70;91.40;;;;;;5054201;28;20531;-85
2020/12/21 10:13:48;;;;;;;9.97;5.20;;;7.70;91.40;;;;;;5054302;28;20485;-85
2020/12/21 10:16:14;;;;;;;9.70;5.80;;;7.70;91.40;;;;;;5053948;28;20493;-85
2020/12/21 10:18:40;;;;;;;13.20;5.20;;;7.80;91.40;;;;;;5055521;28;20037;-85
2020/12/21 10:21:06;;;;;;;8.63;5.50;;;7.80;91.40;;;;;;5054508;28;20079;-86
2020/12/21 10:23:32;;;;;;;11.00;5.63;;;7.80;91.40;;;;;;5055008;28;20023;-86
2020/12/21 10:26:01;;;;;;;9.20;5.30;;;7.80;91.40;;;;;;5053991;28;20033;-85
2020/12/21 10:28:27;;;;;;;10.63;6.17;;;7.80;91.40;;;;;;5055030;28;20124;-86
2020/12/21 10:30:53;;;;;;;9.33;4.90;;;7.90;91.40;;;;;;5054332;28;20064;-86
2020/12/21 10:33:18;;;;;;;10.53;5.53;;;7.90;91.40;;;;;;5053959;28;20028;-83
2020/12/21 10:35:44;;;;;;;11.03;5.67;;;7.90;91.50;;;;;;5054002;28;20478;-85
2020/12/21 10:38:10;;;;;;;9.07;5.00;;;7.90;91.40;;;;;;5054335;28;20033;-85
2020/12/21 10:40:35;;;;;;;10.00;4.90;;;8.00;91.50;;;;;;5053845;28;20029;-85
2020/12/21 10:43:01;;;;;;;9.67;4.57;;;8.00;91.50;;;;;;5054013;28;20458;-85
2020/12/21 10:45:28;;;;;;;8.67;4.40;;;8.00;91.40;;;;;;5053367;28;20514;-85
2020/12/21 10:47:53;;;;;;;13.10;6.07;;;8.00;91.40;;;;;;5053627;28;20033;-86
2020/12/21 10:50:19;;;;;;;15.40;7.90;;;8.00;91.40;;;;;;5038717;28;20135;-86
2020/12/21 10:52:45;;;;;;;18.13;8.90;;;8.10;91.40;;;;;;5033982;28;20119;-86
2020/12/21 10:55:11;;;;;;;14.52;5.90;;;8.10;91.50;;;;;;5033932;28;20030;-87
2020/12/21 10:57:36;;;;;;;8.80;4.35;;;8.00;91.40;;;;;;5033463;28;20045;-86
2020/12/21 11:00:05;;;;;;;7.40;4.03;;;8.00;91.60;;;;;;5033639;28;20035;-86
2020/12/21 11:02:31;;;;;;;9.32;3.85;;;8.00;91.70;;;;;;5033672;28;20120;-86
2020/12/21 11:04:56;;;;;;;10.98;4.72;;;8.00;91.60;;;;;;5034923;28;20057;-86
2020/12/21 11:07:22;;;;;;;9.52;3.95;;;8.10;91.60;;;;;;5033451;28;20435;-85
2020/12/21 11:09:47;;;;;;;9.77;3.80;;;8.10;91.60;;;;;;5033591;28;20064;-85
2020/12/21 11:12:13;;;;;;;8.25;3.95;;;8.20;91.50;;;;;;5033808;28;20033;-85
2020/12/21 11:14:39;;;;;;;9.95;3.70;;;8.20;91.40;;;;;;5033480;28;20022;-85
2020/12/21 11:17:04;;;;;;;7.50;4.38;;;8.20;91.30;;;;;;5033300;28;20034;-86
2020/12/21 11:19:30;;;;;;;7.22;4.03;;;8.20;91.20;;;;;;5033133;28;20026;-85
2020/12/21 11:21:56;;;;;;;8.10;4.10;;;8.20;91.10;;;;;;5034756;28;20426;-85
2020/12/21 11:24:21;;;;;;;9.07;4.37;;;8.20;91.20;;;;;;5034247;28;20060;-85
2020/12/21 11:26:53;;;;;;;8.00;4.23;;;8.20;91.20;;;;;;5033185;28;20025;-85
2020/12/21 11:29:19;;;;;;;9.00;4.50;;;8.20;91.20;;;;;;5032792;28;20489;-84
2020/12/21 11:31:45;;;;;;;8.77;5.38;;;8.40;91.10;;;;;;5033452;28;20025;-85
2020/12/21 11:34:10;;;;;;;10.65;4.40;;;8.50;91.00;;;;;;5034303;28;20033;-85
2020/12/21 11:36:36;;;;;;;9.48;4.55;;;8.60;90.90;;;;;;5032745;28;20029;-85
2020/12/21 11:39:02;;;;;;;6.60;3.88;;;8.70;91.00;;;;;;5033000;28;20457;-84
2020/12/21 11:41:29;;;;;;;10.30;4.32;;;8.70;90.80;;;;;;5032731;28;20029;-85
2020/12/21 11:43:55;;;;;;;7.43;4.00;;;8.80;90.80;;;;;;5034189;28;20117;-84
2020/12/21 11:46:29;;;;;;;7.97;4.35;;;8.80;90.80;;;;;;5033656;28;20486;-86
2020/12/21 11:48:54;;;;;;;6.97;4.22;;;8.80;90.80;;;;;;5039670;28;20041;-86
2020/12/21 11:51:20;;;;;;;8.82;4.15;;;8.80;90.80;;;;;;5055847;28;20043;-85
2020/12/21 11:53:45;;;;;;;9.45;4.22;;;8.90;90.60;;;;;;5056424;28;20037;-85
2020/12/21 11:56:19;;;;;;;8.35;3.60;;;8.90;90.40;;;;;;5073989;28;20468;-86
2020/12/21 11:58:44;;;;;;;6.63;3.60;;;8.80;90.30;;;;;;5073882;28;20033;-85
2020/12/21 12:01:10;;;;;;;6.38;3.75;;;8.80;90.00;;;;;;5056117;28;20082;-85
2020/12/21 12:03:36;;;;;;;7.63;3.97;;;8.80;90.20;;;;;;5055657;28;20020;-85
2020/12/21 12:06:02;;;;;;;7.22;4.00;;;8.70;90.20;;;;;;5055767;28;20052;-86
2020/12/21 12:08:28;;;;;;;7.28;3.90;;;8.70;90.10;;;;;;5073360;28;20062;-86
2020/12/21 12:10:54;;;;;;;7.05;3.80;;;8.70;90.00;;;;;;5056136;28;20024;-87
2020/12/21 12:13:20;;;;;;;8.18;3.58;;;8.70;90.00;;;;;;5055771;28;20086;-86
2020/12/21 12:15:45;;;;;;;10.77;4.13;;;8.70;89.70;;;;;;5056099;28;20035;-86
2020/12/21 12:18:11;;;;;;;7.85;4.22;;;8.80;90.00;;;;;;5073688;28;20029;-82
2020/12/21 12:20:36;;;;;;;5.82;3.67;;;8.80;89.70;;;;;;5055617;28;20024;-81
2020/12/21 12:23:02;;;;;;;6.82;3.90;;;8.90;90.00;;;;;;5073601;28;20111;-82
2020/12/21 12:25:28;;;;;;;10.70;4.35;;;9.00;89.90;;;;;;5054912;28;20025;-83
2020/12/21 12:27:54;;;;;;;7.38;4.28;;;9.10;89.60;;;;;;5055525;28;20086;-82
2020/12/21 12:30:19;;;;;;;6.85;4.22;;;9.20;89.60;;;;;;5039387;28;20481;-83
2020/12/21 12:32:45;;;;;;;8.52;4.40;;;9.20;89.40;;;;;;5030735;28;20028;-83
2020/12/21 12:35:10;;;;;;;6.53;4.10;;;9.20;89.10;;;;;;5024776;28;20481;-83
2020/12/21 12:37:36;;;;;;;8.35;4.95;;;9.30;89.20;;;;;;5023903;28;20041;-83
2020/12/21 12:40:02;;;;;;;7.70;3.92;;;9.30;88.90;;;;;;5019813;28;20026;-83
2020/12/21 12:42:28;;;;;;;7.45;3.80;;;9.30;88.70;;;;;;5053244;28;20026;-83
2020/12/21 12:44:54;;;;;;;9.13;4.50;;;9.40;88.80;;;;;;5039457;28;20021;-83
2020/12/21 12:47:19;;;;;;;10.15;4.95;;;9.40;88.90;;;;;;5029216;28;20036;-85